Time;durP1;ratioP1;P1;durP2;ratioP2;P2;SDS_P1;SDS_P2;PMS_P1;PMS_P2;Temp;Humidity;BMP_temperature;BMP_pressure;BME280_temperature;BME280_humidity;BME280_pressure;Samples;Min_cycle;Max_cycle;Signal;HPM_P1;HPM_P2
2022/04/24 00:01:24;;;;;;;12.27;6.28;;;9.50;99.90;;;;;;5044941;28;20131;-82
2022/04/24 00:03:50;;;;;;;10.32;5.88;;;9.40;99.90;;;;;;5052743;28;20145;-82
2022/04/24 00:06:16;;;;;;;10.63;5.68;;;9.40;99.90;;;;;;5033571;28;20048;-81
2022/04/24 00:08:41;;;;;;;12.25;6.13;;;9.40;99.90;;;;;;5080969;28;20067;-82
2022/04/24 00:11:07;;;;;;;11.55;5.65;;;9.40;99.90;;;;;;5048229;28;20082;-81
2022/04/24 00:13:38;;;;;;;11.73;5.97;;;9.40;99.90;;;;;;5053666;28;20110;-81
2022/04/24 00:16:06;;;;;;;10.35;5.75;;;9.30;99.90;;;;;;5062851;28;20044;-81
2022/04/24 00:18:32;;;;;;;12.30;6.43;;;9.30;99.90;;;;;;5076450;28;20055;-81
2022/04/24 00:20:57;;;;;;;10.45;5.68;;;9.30;99.90;;;;;;5065865;28;20084;-81
2022/04/24 00:23:23;;;;;;;10.75;5.95;;;9.30;99.90;;;;;;5025904;28;20090;-81
2022/04/24 00:25:49;;;;;;;10.93;5.72;;;9.30;99.90;;;;;;5050393;28;20059;-81
2022/04/24 00:28:15;;;;;;;10.35;5.60;;;9.40;99.90;;;;;;5060879;28;20069;-81
2022/04/24 00:30:40;;;;;;;10.57;5.68;;;9.20;99.90;;;;;;5062073;28;20440;-81
2022/04/24 00:33:06;;;;;;;12.13;5.93;;;9.20;99.90;;;;;;5065242;28;20051;-83
2022/04/24 00:35:32;;;;;;;11.30;5.82;;;9.20;99.90;;;;;;5065881;28;20113;-81
2022/04/24 00:37:58;;;;;;;10.80;6.00;;;9.20;99.90;;;;;;5058706;28;20048;-81
2022/04/24 00:40:23;;;;;;;12.45;5.70;;;9.20;99.90;;;;;;5049636;28;20392;-82
2022/04/24 00:42:49;;;;;;;10.70;5.82;;;9.20;99.90;;;;;;5046638;28;20043;-83
2022/04/24 00:45:15;;;;;;;10.55;5.80;;;9.20;99.90;;;;;;5075512;28;20037;-82
2022/04/24 00:47:41;;;;;;;11.25;6.28;;;9.10;99.90;;;;;;5061943;28;20047;-81
2022/04/24 00:50:08;;;;;;;11.88;6.63;;;9.10;99.90;;;;;;5056580;28;20059;-82
2022/04/24 00:52:34;;;;;;;12.25;5.93;;;9.10;99.90;;;;;;5063115;28;20059;-82
2022/04/24 00:55:00;;;;;;;11.43;5.93;;;9.10;99.90;;;;;;5049940;28;20052;-82
2022/04/24 00:57:26;;;;;;;11.05;6.07;;;9.70;99.90;;;;;;5052616;28;20139;-82
2022/04/24 00:59:51;;;;;;;10.25;5.97;;;9.10;99.90;;;;;;5070675;28;20123;-81
2022/04/24 01:02:17;;;;;;;11.50;6.13;;;9.20;99.90;;;;;;5041896;28;20090;-82
2022/04/24 01:04:43;;;;;;;10.73;5.82;;;9.20;99.90;;;;;;5052557;28;20047;-82
2022/04/24 01:07:10;;;;;;;11.20;5.85;;;9.00;99.90;;;;;;5064005;28;20072;-82
2022/04/24 01:09:36;;;;;;;10.75;6.03;;;9.00;99.90;;;;;;5066004;28;20205;-83
2022/04/24 01:12:03;;;;;;;13.07;6.55;;;9.00;99.90;;;;;;5078202;28;20078;-82
2022/04/24 01:14:32;;;;;;;13.48;6.47;;;9.00;99.90;;;;;;5063344;28;20043;-81
2022/04/24 01:16:59;;;;;;;10.50;6.30;;;9.00;99.90;;;;;;5066057;28;20047;-82
2022/04/24 01:19:26;;;;;;;11.52;6.78;;;9.00;99.90;;;;;;5065341;28;20047;-82
2022/04/24 01:21:53;;;;;;;13.00;6.53;;;9.00;99.90;;;;;;5051752;28;20072;-82
2022/04/24 01:24:21;;;;;;;11.80;6.22;;;8.90;99.90;;;;;;5052890;28;20047;-82
2022/04/24 01:26:46;;;;;;;13.23;6.65;;;8.90;99.90;;;;;;5081597;28;20036;-82
2022/04/24 01:29:12;;;;;;;11.00;5.93;;;8.90;99.90;;;;;;5060975;28;20417;-82
2022/04/24 01:31:39;;;;;;;11.27;6.13;;;8.90;99.90;;;;;;5057547;28;20039;-82
2022/04/24 01:34:05;;;;;;;10.90;5.70;;;8.90;99.90;;;;;;5030548;28;20040;-82
2022/04/24 01:36:31;;;;;;;11.55;6.13;;;8.90;99.90;;;;;;5055673;28;20043;-81
2022/04/24 01:38:56;;;;;;;12.10;6.63;;;8.90;99.90;;;;;;5038588;28;20068;-82
2022/04/24 01:41:22;;;;;;;11.45;6.03;;;8.80;99.90;;;;;;5058845;28;20117;-81
2022/04/24 01:43:48;;;;;;;11.60;6.18;;;8.80;99.90;;;;;;5056879;28;20032;-82
2022/04/24 01:46:14;;;;;;;10.30;5.80;;;8.80;99.90;;;;;;5047416;28;20562;-82
2022/04/24 01:48:40;;;;;;;11.75;5.95;;;8.80;99.90;;;;;;5068701;28;20279;-82
2022/04/24 01:51:07;;;;;;;9.90;5.40;;;8.80;99.90;;;;;;5049061;28;20047;-81
2022/04/24 01:53:34;;;;;;;10.38;5.68;;;8.80;99.90;;;;;;5073192;28;20040;-81
2022/04/24 01:56:03;;;;;;;10.77;5.95;;;8.80;99.90;;;;;;5053405;28;20040;-82
2022/04/24 01:58:29;;;;;;;10.25;5.60;;;8.80;99.90;;;;;;5087052;28;20408;-81
2022/04/24 02:00:55;;;;;;;10.00;5.65;;;8.80;99.90;;;;;;5069089;28;20032;-82
2022/04/24 02:03:23;;;;;;;10.00;5.18;;;8.80;99.90;;;;;;5070350;28;20075;-82
2022/04/24 02:05:49;;;;;;;12.48;5.53;;;8.80;99.90;;;;;;5046423;28;20039;-82
2022/04/24 02:08:14;;;;;;;11.25;5.30;;;8.70;99.90;;;;;;5053217;28;20029;-82
2022/04/24 02:10:41;;;;;;;10.20;5.50;;;9.50;99.90;;;;;;5072803;28;20036;-82
2022/04/24 02:13:07;;;;;;;11.18;5.80;;;8.70;99.90;;;;;;5079080;28;20049;-81
2022/04/24 02:15:34;;;;;;;10.88;6.05;;;8.60;99.90;;;;;;5075799;28;20067;-81
2022/04/24 02:18:00;;;;;;;11.02;6.20;;;8.60;99.90;;;;;;5061518;28;20044;-81
2022/04/24 02:20:28;;;;;;;10.23;5.65;;;8.50;99.90;;;;;;5054169;28;20128;-81
2022/04/24 02:22:56;;;;;;;11.70;6.00;;;8.50;99.90;;;;;;5078736;28;20047;-82
2022/04/24 02:25:22;;;;;;;10.52;5.70;;;8.40;99.90;;;;;;5068882;28;20054;-81
2022/04/24 02:27:48;;;;;;;10.65;5.95;;;8.40;99.90;;;;;;5036732;28;20031;-82
2022/04/24 02:30:13;;;;;;;10.63;5.68;;;8.30;99.90;;;;;;5061882;28;20044;-82
2022/04/24 02:32:39;;;;;;;11.38;5.90;;;8.30;99.90;;;;;;5066050;28;20036;-83
2022/04/24 02:35:05;;;;;;;10.93;6.50;;;8.40;99.90;;;;;;5047808;28;20040;-82
2022/04/24 02:37:32;;;;;;;13.80;6.57;;;8.20;99.90;;;;;;5078818;28;20497;-82
2022/04/24 02:39:58;;;;;;;10.30;6.20;;;8.20;99.90;;;;;;5055886;28;20123;-82
2022/04/24 02:42:25;;;;;;;13.40;7.47;;;8.10;99.90;;;;;;5045039;28;20515;-81
2022/04/24 02:44:51;;;;;;;11.65;6.95;;;8.00;99.90;;;;;;5083490;28;20036;-82
2022/04/24 02:47:17;;;;;;;12.10;7.15;;;7.90;99.90;;;;;;5053691;28;20029;-81
2022/04/24 02:49:42;;;;;;;12.93;6.70;;;7.90;99.90;;;;;;5044758;28;20040;-82
2022/04/24 02:52:08;;;;;;;14.05;7.70;;;8.90;99.90;;;;;;5060615;28;20032;-82
2022/04/24 02:54:34;;;;;;;13.50;6.93;;;7.80;99.90;;;;;;5054892;28;20032;-82
2022/04/24 02:57:00;;;;;;;12.95;7.25;;;7.70;99.90;;;;;;5060827;28;20121;-81
2022/04/24 02:59:26;;;;;;;12.70;7.45;;;7.60;99.90;;;;;;5063719;28;20041;-82
2022/04/24 03:01:54;;;;;;;13.75;7.40;;;7.60;99.90;;;;;;5035092;28;20055;-82
2022/04/24 03:04:20;;;;;;;12.75;7.32;;;7.90;99.90;;;;;;5072561;28;20541;-82
2022/04/24 03:06:45;;;;;;;13.07;7.50;;;7.50;99.90;;;;;;5073280;28;20135;-81
2022/04/24 03:09:11;;;;;;;12.65;7.25;;;7.50;99.90;;;;;;5055407;28;20097;-82
2022/04/24 03:11:37;;;;;;;13.90;7.28;;;7.40;99.90;;;;;;5073334;28;20054;-81
2022/04/24 03:14:03;;;;;;;12.07;6.93;;;7.40;99.90;;;;;;5029694;28;20412;-82
2022/04/24 03:16:28;;;;;;;12.38;7.45;;;7.40;99.90;;;;;;5034446;28;20040;-82
2022/04/24 03:18:54;;;;;;;12.73;7.45;;;7.40;99.90;;;;;;5067829;28;20385;-81
2022/04/24 03:21:20;;;;;;;12.25;7.18;;;7.50;99.90;;;;;;5066395;28;20036;-82
2022/04/24 03:23:45;;;;;;;12.15;7.22;;;7.30;99.90;;;;;;5063946;28;20043;-81
2022/04/24 03:26:13;;;;;;;12.20;7.10;;;7.30;99.90;;;;;;5052597;28;20118;-82
2022/04/24 03:28:40;;;;;;;12.02;7.07;;;7.30;99.90;;;;;;5070291;28;20043;-82
2022/04/24 03:31:06;;;;;;;12.82;6.95;;;7.60;99.90;;;;;;5082450;28;20090;-82
2022/04/24 03:33:32;;;;;;;13.32;7.60;;;7.30;99.90;;;;;;5062814;28;20138;-82
2022/04/24 03:35:58;;;;;;;12.63;6.57;;;7.30;99.90;;;;;;5068629;28;20522;-82
2022/04/24 03:38:24;;;;;;;12.73;7.00;;;7.20;99.90;;;;;;5080160;28;20032;-82
2022/04/24 03:40:49;;;;;;;12.82;7.05;;;7.20;99.90;;;;;;5044140;28;20043;-82
2022/04/24 03:43:15;;;;;;;12.35;6.85;;;8.20;99.90;;;;;;5052312;28;20047;-82
2022/04/24 03:45:41;;;;;;;13.90;7.18;;;7.20;99.90;;;;;;5053272;28;20043;-82
2022/04/24 03:48:07;;;;;;;12.70;6.75;;;7.40;99.90;;;;;;5061235;28;20108;-82
2022/04/24 03:50:33;;;;;;;11.95;6.75;;;7.10;99.90;;;;;;5054492;28;20036;-82
2022/04/24 03:52:58;;;;;;;13.35;6.95;;;7.10;99.90;;;;;;5050139;28;20043;-81
2022/04/24 03:55:24;;;;;;;12.75;6.95;;;8.00;99.90;;;;;;5066145;28;20043;-81
2022/04/24 03:57:50;;;;;;;12.77;7.28;;;7.00;99.90;;;;;;5063550;28;20525;-82
2022/04/24 04:00:16;;;;;;;12.77;7.30;;;7.00;99.90;;;;;;5043405;28;20056;-82
2022/04/24 04:02:47;;;;;;;12.45;6.68;;;7.00;99.90;;;;;;5079929;28;20052;-82
2022/04/24 04:05:13;;;;;;;12.38;6.93;;;6.80;99.90;;;;;;5065194;28;20044;-81
2022/04/24 04:07:39;;;;;;;14.15;6.78;;;7.10;99.90;;;;;;5063936;28;20053;-81
2022/04/24 04:10:06;;;;;;;12.70;7.25;;;6.90;99.90;;;;;;5067630;28;20044;-82
2022/04/24 04:12:32;;;;;;;11.85;6.18;;;6.90;99.90;;;;;;5045287;28;20047;-82
2022/04/24 04:15:01;;;;;;;12.15;6.72;;;7.00;99.90;;;;;;5045845;28;20044;-81
2022/04/24 04:17:27;;;;;;;13.43;6.72;;;6.90;99.90;;;;;;5058853;28;20036;-82
2022/04/24 04:19:52;;;;;;;14.05;7.07;;;6.90;99.90;;;;;;5048796;28;20047;-81
2022/04/24 04:22:19;;;;;;;13.80;6.55;;;7.20;99.90;;;;;;5067594;28;20122;-81
2022/04/24 04:24:44;;;;;;;12.50;6.30;;;6.90;99.90;;;;;;5049803;28;20040;-81
2022/04/24 04:27:10;;;;;;;13.05;6.47;;;6.90;99.90;;;;;;5060357;28;20040;-81
2022/04/24 04:29:36;;;;;;;14.88;6.97;;;6.80;99.90;;;;;;5070947;28;20047;-81
2022/04/24 04:32:03;;;;;;;11.73;6.55;;;6.90;99.90;;;;;;5052104;28;20044;-81
2022/04/24 04:34:28;;;;;;;12.80;6.18;;;6.90;99.90;;;;;;5068504;28;20046;-81
2022/04/24 04:36:54;;;;;;;12.30;6.55;;;6.90;99.90;;;;;;5053098;28;20123;-81
2022/04/24 04:39:20;;;;;;;12.82;6.65;;;7.10;99.90;;;;;;5061198;28;20043;-81
2022/04/24 04:41:46;;;;;;;12.68;6.30;;;7.70;99.90;;;;;;5077301;28;20039;-81
2022/04/24 04:44:12;;;;;;;12.23;5.95;;;8.00;99.90;;;;;;5065502;28;20028;-81
2022/04/24 04:46:38;;;;;;;12.50;6.32;;;7.10;99.90;;;;;;5082630;28;20528;-81
2022/04/24 04:49:04;;;;;;;10.43;6.10;;;7.40;99.90;;;;;;5049032;28;20037;-81
2022/04/24 04:51:30;;;;;;;13.05;6.65;;;7.10;99.90;;;;;;5063784;28;20035;-82
2022/04/24 04:53:56;;;;;;;12.95;6.20;;;7.10;99.90;;;;;;5041891;28;20042;-82
2022/04/24 04:56:22;;;;;;;13.10;6.10;;;7.20;99.90;;;;;;5066119;28;20036;-81
2022/04/24 04:58:49;;;;;;;13.77;6.55;;;7.20;99.90;;;;;;5064500;28;20070;-82
2022/04/24 05:01:15;;;;;;;12.98;6.53;;;7.20;99.90;;;;;;5083067;28;20047;-81
2022/04/24 05:03:40;;;;;;;12.50;6.53;;;7.30;99.90;;;;;;5062885;28;20059;-81
2022/04/24 05:06:06;;;;;;;15.20;6.70;;;8.30;99.90;;;;;;5061598;28;20115;-82
2022/04/24 05:08:33;;;;;;;12.98;7.18;;;7.30;99.90;;;;;;5065654;28;20087;-82
2022/04/24 05:10:59;;;;;;;13.90;6.60;;;7.80;99.90;;;;;;5054241;28;20123;-82
2022/04/24 05:13:25;;;;;;;12.77;6.93;;;7.40;99.90;;;;;;5055129;28;20040;-81
2022/04/24 05:15:51;;;;;;;14.23;7.00;;;7.40;99.90;;;;;;5088808;28;20511;-81
2022/04/24 05:18:18;;;;;;;12.43;7.07;;;7.50;99.90;;;;;;5066239;28;20460;-81
2022/04/24 05:20:44;;;;;;;12.85;7.25;;;7.70;99.90;;;;;;5076601;28;20040;-81
2022/04/24 05:23:10;;;;;;;12.63;7.28;;;8.00;99.90;;;;;;5060680;28;20154;-81
2022/04/24 05:25:36;;;;;;;13.32;7.22;;;7.70;99.90;;;;;;5061135;28;20032;-82
2022/04/24 05:28:03;;;;;;;13.73;7.22;;;7.70;99.90;;;;;;5054564;28;20059;-81
2022/04/24 05:30:29;;;;;;;13.73;7.63;;;7.80;99.90;;;;;;5049109;28;20036;-81
2022/04/24 05:32:55;;;;;;;13.05;7.32;;;7.90;99.90;;;;;;5042746;28;20098;-81
2022/04/24 05:35:21;;;;;;;14.88;7.70;;;8.00;99.90;;;;;;5063000;28;20032;-82
2022/04/24 05:37:48;;;;;;;12.85;7.53;;;8.00;99.90;;;;;;5056267;28;20071;-82
2022/04/24 05:40:14;;;;;;;13.82;7.45;;;8.20;99.90;;;;;;5092230;28;20047;-81
2022/04/24 05:42:53;;;;;;;16.33;7.35;;;8.30;99.90;;;;;;5089750;28;20117;-81
2022/04/24 05:45:22;;;;;;;12.93;7.53;;;8.40;99.90;;;;;;5092030;28;20071;-81
2022/04/24 05:47:48;;;;;;;12.15;7.10;;;8.50;99.90;;;;;;5086365;28;20438;-81
2022/04/24 05:50:14;;;;;;;12.20;6.93;;;8.60;99.90;;;;;;5056948;28;20119;-82
2022/04/24 05:52:40;;;;;;;13.50;6.78;;;8.60;99.90;;;;;;5049512;28;20123;-81
2022/04/24 05:55:06;;;;;;;12.48;6.50;;;8.70;99.90;;;;;;5076989;28;20511;-82
2022/04/24 05:57:32;;;;;;;12.60;6.50;;;8.70;99.90;;;;;;5086513;28;20041;-81
2022/04/24 05:59:58;;;;;;;14.27;6.22;;;8.80;99.90;;;;;;5074896;28;20119;-82
2022/04/24 06:02:24;;;;;;;12.25;5.93;;;9.00;99.90;;;;;;5074268;28;20062;-81
2022/04/24 06:04:50;;;;;;;13.80;6.75;;;9.20;99.90;;;;;;5089836;28;20048;-81
2022/04/24 06:07:16;;;;;;;12.40;6.03;;;9.20;99.90;;;;;;5069303;28;20044;-82
2022/04/24 06:09:42;;;;;;;11.57;5.53;;;9.30;99.90;;;;;;5073810;28;20044;-82
2022/04/24 06:12:08;;;;;;;12.50;5.85;;;9.40;99.90;;;;;;5075308;28;20028;-82
2022/04/24 06:14:34;;;;;;;11.98;5.10;;;9.50;99.90;;;;;;5050150;28;20041;-82
2022/04/24 06:17:00;;;;;;;12.07;5.40;;;9.60;99.90;;;;;;5046035;28;20477;-82
2022/04/24 06:19:26;;;;;;;10.27;4.55;;;9.90;99.90;;;;;;5052900;28;20127;-82
2022/04/24 06:21:52;;;;;;;10.55;4.75;;;9.70;99.90;;;;;;5049631;28;20047;-81
2022/04/24 06:24:18;;;;;;;11.10;4.65;;;9.80;99.90;;;;;;5068865;28;20032;-82
2022/04/24 06:26:45;;;;;;;10.23;4.97;;;9.80;99.90;;;;;;5073309;28;20073;-82
2022/04/24 06:29:11;;;;;;;11.55;4.60;;;9.90;99.90;;;;;;5082936;28;20048;-82
2022/04/24 06:31:37;;;;;;;11.07;4.72;;;10.00;99.90;;;;;;5070010;28;20402;-82
2022/04/24 06:34:03;;;;;;;12.25;4.65;;;10.00;99.90;;;;;;5045221;28;20097;-82
2022/04/24 06:36:28;;;;;;;9.75;4.60;;;10.00;99.90;;;;;;5068101;28;20072;-81
2022/04/24 06:39:00;;;;;;;11.85;4.30;;;10.10;99.90;;;;;;5050059;28;21393;-82
2022/04/24 06:41:26;;;;;;;10.50;4.00;;;10.20;99.90;;;;;;5037369;28;20432;-82
2022/04/24 06:43:52;;;;;;;11.40;4.35;;;10.20;99.90;;;;;;5076242;28;20032;-83
2022/04/24 06:46:19;;;;;;;10.65;4.03;;;10.30;99.90;;;;;;5063054;28;20092;-82
2022/04/24 06:48:45;;;;;;;9.63;3.40;;;10.40;99.90;;;;;;5053895;28;20032;-81
2022/04/24 06:51:10;;;;;;;11.73;4.13;;;10.40;99.90;;;;;;5049893;28;20040;-82
2022/04/24 06:53:38;;;;;;;9.02;3.55;;;10.50;99.90;;;;;;5045215;28;20159;-82
2022/04/24 06:56:04;;;;;;;8.63;3.10;;;10.60;99.90;;;;;;5071768;28;20040;-82
2022/04/24 06:58:30;;;;;;;12.30;3.20;;;10.70;99.90;;;;;;5054170;28;20477;-82
2022/04/24 07:00:56;;;;;;;8.68;3.20;;;10.70;99.90;;;;;;5059428;28;20519;-82
2022/04/24 07:03:23;;;;;;;8.35;2.95;;;10.80;99.90;;;;;;5046073;28;20061;-82
2022/04/24 07:05:54;;;;;;;8.07;2.90;;;11.00;99.90;;;;;;5050708;28;20450;-82
2022/04/24 07:08:21;;;;;;;8.52;2.97;;;11.00;99.90;;;;;;5085745;28;20072;-81
2022/04/24 07:10:47;;;;;;;8.68;2.90;;;11.10;99.90;;;;;;5065933;28;20044;-81
2022/04/24 07:13:13;;;;;;;8.52;3.00;;;11.20;99.90;;;;;;5069133;28;20067;-82
2022/04/24 07:15:39;;;;;;;9.27;2.55;;;11.30;99.90;;;;;;5051598;28;20979;-81
2022/04/24 07:18:06;;;;;;;7.30;2.55;;;11.50;99.90;;;;;;5054054;28;20040;-81
2022/04/24 07:20:32;;;;;;;8.27;2.83;;;11.50;99.90;;;;;;5037644;28;20036;-81
2022/04/24 07:23:02;;;;;;;8.25;3.05;;;11.60;99.90;;;;;;5078793;28;20115;-81
2022/04/24 07:25:33;;;;;;;9.45;2.78;;;11.60;99.90;;;;;;5043513;28;20036;-81
2022/04/24 07:27:58;;;;;;;9.27;3.03;;;11.80;99.90;;;;;;5063130;28;20040;-82
2022/04/24 07:30:25;;;;;;;8.25;2.80;;;11.80;99.90;;;;;;5057752;28;20558;-82
2022/04/24 07:32:55;;;;;;;8.70;2.50;;;11.90;99.90;;;;;;5033106;28;20128;-82
2022/04/24 07:35:33;;;;;;;8.40;2.80;;;11.90;99.90;;;;;;5072320;28;20067;-81
2022/04/24 07:37:59;;;;;;;7.75;2.90;;;12.00;99.90;;;;;;5059566;28;20059;-82
2022/04/24 07:40:30;;;;;;;8.90;2.88;;;12.10;99.90;;;;;;5069217;28;20552;-82
2022/04/24 07:43:04;;;;;;;8.40;3.13;;;12.20;99.90;;;;;;5059778;28;20067;-82
2022/04/24 07:45:37;;;;;;;7.10;2.72;;;12.40;99.90;;;;;;5071623;28;20146;-82
2022/04/24 07:48:05;;;;;;;8.02;3.10;;;12.30;99.90;;;;;;5083882;28;20442;-82
2022/04/24 07:50:34;;;;;;;8.57;3.00;;;12.30;99.90;;;;;;5064675;28;20036;-82
2022/04/24 07:53:01;;;;;;;8.48;3.00;;;12.30;99.90;;;;;;5078442;28;20047;-83
2022/04/24 07:55:27;;;;;;;10.50;2.85;;;12.30;99.90;;;;;;5056596;28;20075;-82
2022/04/24 07:57:55;;;;;;;8.68;3.22;;;12.30;99.90;;;;;;5038734;28;20075;-82
2022/04/24 08:00:22;;;;;;;9.23;3.10;;;12.30;99.90;;;;;;5053242;28;20036;-84
2022/04/24 08:02:57;;;;;;;8.40;3.17;;;12.40;99.90;;;;;;5060219;28;20048;-84
2022/04/24 08:05:28;;;;;;;7.45;2.70;;;12.60;99.90;;;;;;5063909;28;20493;-83
2022/04/24 08:07:55;;;;;;;8.60;3.03;;;12.50;99.90;;;;;;5075186;28;20115;-83
2022/04/24 08:10:23;;;;;;;9.65;2.97;;;12.60;99.90;;;;;;5071213;28;20520;-82
2022/04/24 08:12:50;;;;;;;8.50;2.90;;;12.70;99.90;;;;;;5041313;28;20097;-83
2022/04/24 08:15:16;;;;;;;8.73;3.22;;;12.80;99.90;;;;;;5071870;28;20475;-83
2022/04/24 08:17:41;;;;;;;8.35;2.97;;;12.80;99.90;;;;;;5080898;28;20044;-82
2022/04/24 08:20:08;;;;;;;8.30;3.13;;;12.90;99.90;;;;;;5065899;28;20043;-82
2022/04/24 08:22:41;;;;;;;10.50;3.42;;;12.90;99.90;;;;;;5050155;28;20040;-83
2022/04/24 08:25:08;;;;;;;7.90;3.13;;;12.90;99.90;;;;;;5083774;28;20083;-83
2022/04/24 08:27:34;;;;;;;8.55;2.83;;;13.00;99.90;;;;;;5064916;28;20037;-82
2022/04/24 08:30:00;;;;;;;8.68;3.20;;;13.10;99.90;;;;;;5047417;28;20492;-82
2022/04/24 08:32:26;;;;;;;7.80;2.92;;;13.20;99.90;;;;;;5054040;28;20086;-83
2022/04/24 08:34:52;;;;;;;7.65;2.95;;;13.20;99.90;;;;;;5066849;28;20081;-83
2022/04/24 08:37:18;;;;;;;8.68;3.50;;;13.30;99.90;;;;;;5068634;28;20028;-82
2022/04/24 08:39:43;;;;;;;10.27;3.60;;;13.40;99.90;;;;;;5048126;28;20047;-83
2022/04/24 08:42:09;;;;;;;8.48;3.38;;;13.50;99.90;;;;;;5046931;28;20097;-83
2022/04/24 08:44:38;;;;;;;7.88;3.20;;;13.60;99.90;;;;;;5035539;28;20501;-83
2022/04/24 08:47:05;;;;;;;8.30;2.80;;;13.60;99.90;;;;;;5052212;28;20040;-82
2022/04/24 08:49:31;;;;;;;9.15;3.00;;;13.60;99.90;;;;;;5071831;28;20075;-82
2022/04/24 08:52:00;;;;;;;8.93;3.17;;;13.60;99.90;;;;;;5068125;28;20070;-82
2022/04/24 08:54:27;;;;;;;8.45;3.30;;;13.80;99.90;;;;;;5083592;28;20085;-82
2022/04/24 08:56:56;;;;;;;8.32;3.50;;;13.90;99.90;;;;;;5069931;28;21405;-83
2022/04/24 08:59:22;;;;;;;8.82;3.40;;;13.90;99.90;;;;;;5064507;28;20105;-84
2022/04/24 09:01:50;;;;;;;9.68;3.30;;;13.80;99.90;;;;;;5065116;28;20056;-83
2022/04/24 09:04:16;;;;;;;9.25;3.33;;;13.70;99.90;;;;;;5088333;28;20048;-83
2022/04/24 09:06:42;;;;;;;8.27;3.22;;;13.80;99.90;;;;;;5084039;28;20040;-83
2022/04/24 09:09:08;;;;;;;8.32;3.22;;;13.80;99.90;;;;;;5052481;28;20032;-84
2022/04/24 09:11:34;;;;;;;9.38;3.30;;;13.80;99.90;;;;;;5048803;28;20071;-83
2022/04/24 09:14:14;;;;;;;9.55;3.60;;;13.90;99.90;;;;;;5071648;28;20399;-83
2022/04/24 09:16:47;;;;;;;9.73;3.40;;;13.90;99.90;;;;;;5059203;28;20064;-84
2022/04/24 09:19:23;;;;;;;8.45;3.42;;;13.90;99.90;;;;;;5071764;28;20036;-83
2022/04/24 09:21:51;;;;;;;9.32;3.15;;;13.90;99.90;;;;;;5067363;28;20520;-83
2022/04/24 09:24:17;;;;;;;9.43;2.97;;;14.00;99.90;;;;;;5053552;28;20069;-83
2022/04/24 09:27:22;;;;;;;8.35;3.25;;;14.00;99.90;;;;;;5071625;28;20107;-83
2022/04/24 09:29:59;;;;;;;8.13;3.00;;;14.00;99.90;;;;;;5078953;28;20119;-82
2022/04/24 09:32:29;;;;;;;8.57;3.13;;;14.10;99.90;;;;;;5075388;28;20036;-83
2022/04/24 09:34:55;;;;;;;9.45;3.35;;;14.30;99.90;;;;;;5088074;28;20032;-82
2022/04/24 09:37:21;;;;;;;10.15;3.10;;;14.20;99.90;;;;;;5050557;28;20040;-83
2022/04/24 09:39:49;;;;;;;8.73;3.38;;;14.30;99.90;;;;;;5067635;28;20055;-83
2022/04/24 09:42:19;;;;;;;9.57;2.97;;;14.30;99.90;;;;;;5054036;28;20382;-83
2022/04/24 09:44:49;;;;;;;8.88;3.15;;;14.30;99.90;;;;;;5064641;28;20501;-83
2022/04/24 09:47:33;;;;;;;8.57;2.80;;;14.40;99.90;;;;;;5061203;28;20071;-83
2022/04/24 09:50:00;;;;;;;8.32;2.85;;;14.50;99.90;;;;;;5062837;28;20075;-84
2022/04/24 09:52:27;;;;;;;7.30;2.90;;;14.40;99.90;;;;;;5056512;28;20044;-83
2022/04/24 09:54:55;;;;;;;6.88;2.70;;;14.50;99.90;;;;;;5066050;28;20071;-82
2022/04/24 09:57:24;;;;;;;8.63;2.78;;;14.50;99.90;;;;;;5065863;28;20116;-83
2022/04/24 09:59:53;;;;;;;8.75;2.63;;;14.50;99.90;;;;;;5084474;28;20539;-83
2022/04/24 10:02:20;;;;;;;8.38;2.70;;;14.60;99.90;;;;;;5060735;28;20052;-83
2022/04/24 10:04:47;;;;;;;9.60;3.10;;;14.60;99.90;;;;;;5071863;28;20397;-83
2022/04/24 10:07:17;;;;;;;9.25;3.30;;;14.60;99.90;;;;;;5072329;28;20041;-84
2022/04/24 10:09:47;;;;;;;8.00;2.70;;;14.70;99.90;;;;;;5062594;28;20589;-83
2022/04/24 10:12:20;;;;;;;9.88;2.90;;;14.80;99.90;;;;;;5058230;28;20032;-83
2022/04/24 10:15:12;;;;;;;7.57;2.67;;;14.90;99.90;;;;;;5080308;28;20147;-84
2022/04/24 10:17:52;;;;;;;8.70;2.72;;;14.90;99.90;;;;;;5086766;28;20127;-83
2022/04/24 10:20:36;;;;;;;9.10;3.30;;;14.80;99.90;;;;;;5063899;28;20040;-83
2022/04/24 10:23:02;;;;;;;10.43;3.10;;;14.90;99.90;;;;;;5061888;28;20040;-83
2022/04/24 10:25:37;;;;;;;7.85;2.50;;;14.90;99.90;;;;;;5065332;28;20039;-84
2022/04/24 10:28:17;;;;;;;7.20;2.67;;;15.00;99.90;;;;;;5081645;28;20515;-83
2022/04/24 10:30:47;;;;;;;8.80;2.90;;;15.00;99.90;;;;;;5063857;28;20097;-84
2022/04/24 10:33:20;;;;;;;11.30;2.95;;;15.20;99.90;;;;;;5060813;28;20032;-83
2022/04/24 10:35:48;;;;;;;;;;;15.10;99.90;;;;;;5065858;28;20043;-83
2022/04/24 10:38:14;;;;;;;7.43;2.83;;;15.10;99.90;;;;;;5088223;28;19972;-83
2022/04/24 10:40:40;;;;;;;7.78;2.58;;;15.10;99.90;;;;;;5065186;28;20047;-83
2022/04/24 10:43:07;;;;;;;7.70;2.67;;;15.00;99.90;;;;;;5062469;28;20037;-83
2022/04/24 10:45:45;;;;;;;8.00;2.55;;;14.80;99.90;;;;;;5055588;28;20041;-83
2022/04/24 10:48:15;;;;;;;7.05;2.55;;;14.80;99.90;;;;;;5083967;28;20127;-85
2022/04/24 10:50:54;;;;;;;7.45;2.60;;;14.80;99.90;;;;;;5065396;28;20103;-83
2022/04/24 10:53:20;;;;;;;8.07;2.55;;;15.00;99.90;;;;;;5082677;28;20059;-84
2022/04/24 10:55:46;;;;;;;9.35;2.85;;;15.10;99.90;;;;;;5080060;28;20040;-84
2022/04/24 10:58:13;;;;;;;9.40;2.50;;;15.00;99.90;;;;;;5042990;28;20392;-83
2022/04/24 11:00:39;;;;;;;6.68;2.45;;;14.90;99.90;;;;;;5067038;28;20041;-84
2022/04/24 11:03:14;;;;;;;7.78;2.85;;;14.80;99.90;;;;;;5033490;28;20054;-83
2022/04/24 11:05:42;;;;;;;12.13;2.83;;;14.60;99.90;;;;;;5059099;28;20096;-84
2022/04/24 11:08:10;;;;;;;7.97;2.53;;;14.60;99.90;;;;;;5074279;28;20455;-84
2022/04/24 11:10:41;;;;;;;9.30;2.63;;;14.70;99.90;;;;;;5067252;28;20042;-83
2022/04/24 11:13:16;;;;;;;8.52;2.90;;;14.80;99.90;;;;;;5065544;28;20081;-83
2022/04/24 11:15:47;;;;;;;8.30;3.13;;;14.90;99.90;;;;;;5060490;28;20047;-83
2022/04/24 11:18:31;;;;;;;7.88;2.95;;;15.20;99.90;;;;;;5073186;28;20124;-83
2022/04/24 11:21:01;;;;;;;9.02;2.83;;;15.30;99.90;;;;;;5057536;28;20476;-83
2022/04/24 11:23:29;;;;;;;10.00;3.03;;;15.40;99.90;;;;;;5068178;28;20037;-83
2022/04/24 11:25:56;;;;;;;10.07;3.30;;;15.30;99.90;;;;;;5058752;28;20032;-85
2022/04/24 11:28:33;;;;;;;9.20;2.95;;;15.30;99.90;;;;;;5062597;28;20043;-84
2022/04/24 11:31:08;;;;;;;10.88;3.40;;;15.40;99.90;;;;;;5046140;28;20420;-83
2022/04/24 11:33:35;;;;;;;8.95;3.20;;;15.40;99.90;;;;;;5077443;28;20489;-84
2022/04/24 11:36:05;;;;;;;8.90;3.25;;;15.30;99.90;;;;;;5052580;28;20040;-84
2022/04/24 11:38:32;;;;;;;9.35;3.35;;;15.40;99.90;;;;;;5069622;28;20099;-84
2022/04/24 11:41:03;;;;;;;9.38;3.45;;;15.50;99.90;;;;;;5065668;28;20416;-83
2022/04/24 11:43:29;;;;;;;7.97;3.20;;;15.50;99.90;;;;;;5083338;28;20111;-84
2022/04/24 11:51:24;;;;;;;8.25;3.40;;;15.20;99.90;;;;;;5074306;28;20177;-83
2022/04/24 11:53:51;;;;;;;9.60;3.70;;;15.10;99.90;;;;;;5051687;28;20123;-83
2022/04/24 11:56:16;;;;;;;12.88;3.72;;;15.10;99.90;;;;;;5072767;28;20462;-83
2022/04/24 11:58:46;;;;;;;9.52;3.58;;;15.10;99.90;;;;;;5046390;28;20150;-84
2022/04/24 12:01:17;;;;;;;10.20;3.42;;;15.10;99.90;;;;;;5089041;28;20165;-85
2022/04/24 12:03:44;;;;;;;9.77;3.80;;;15.00;99.90;;;;;;5089222;28;20060;-84
2022/04/24 12:06:11;;;;;;;9.93;3.40;;;15.10;99.90;;;;;;5083908;28;20115;-83
2022/04/24 12:08:50;;;;;;;8.90;4.18;;;14.90;99.90;;;;;;5043174;28;20415;-84
2022/04/24 12:11:27;;;;;;;10.52;3.92;;;14.80;99.90;;;;;;5055949;28;20400;-84
2022/04/24 12:14:06;;;;;;;8.85;3.88;;;14.90;99.90;;;;;;5079222;28;20404;-84
2022/04/24 12:16:33;;;;;;;13.90;4.07;;;15.20;99.90;;;;;;5089270;28;20077;-84
2022/04/24 12:18:59;;;;;;;8.73;3.75;;;15.30;99.90;;;;;;5073854;28;20059;-85
2022/04/24 12:21:27;;;;;;;9.43;3.83;;;15.40;99.90;;;;;;5082042;28;20036;-85
2022/04/24 12:23:54;;;;;;;9.10;3.75;;;15.40;99.90;;;;;;4367804;28;10000814;-84
2022/04/24 12:26:20;;;;;;;9.73;3.80;;;15.50;99.90;;;;;;5052321;28;20040;-84
2022/04/24 12:28:47;;;;;;;7.93;3.30;;;15.40;99.90;;;;;;5041112;28;20324;-84
2022/04/24 12:31:27;;;;;;;10.02;3.85;;;15.30;99.90;;;;;;5066214;28;20078;-84
2022/04/24 12:33:57;;;;;;;9.10;3.42;;;15.30;99.90;;;;;;5051496;28;20033;-86
2022/04/24 12:36:24;;;;;;;9.27;3.40;;;15.30;99.90;;;;;;5051176;28;20039;-85
2022/04/24 12:39:04;;;;;;;10.82;3.90;;;15.30;99.90;;;;;;5064863;28;20089;-83
2022/04/24 12:41:31;;;;;;;8.18;3.40;;;15.30;99.90;;;;;;5057731;28;20059;-83
2022/04/24 12:44:07;;;;;;;9.05;3.58;;;15.50;99.90;;;;;;5067828;28;20032;-83
2022/04/24 12:46:34;;;;;;;10.20;3.70;;;15.50;99.90;;;;;;5057162;28;20032;-83
2022/04/24 12:49:02;;;;;;;9.98;3.40;;;15.40;99.90;;;;;;5059208;28;20044;-83
2022/04/24 12:51:28;;;;;;;9.55;3.40;;;15.40;99.90;;;;;;5069813;28;20035;-83
2022/04/24 12:53:56;;;;;;;8.93;3.72;;;15.50;99.90;;;;;;5069614;28;20052;-82